createdAt,value
2023-05-06T00:00:23.316Z,57.22
2023-05-06T00:02:50.648Z,57.07
2023-05-06T00:05:18.609Z,56.97
2023-05-06T00:07:48.978Z,57.11
2023-05-06T00:10:17.080Z,57.11
2023-05-06T00:12:44.564Z,57.17
2023-05-06T00:15:12.161Z,57.03
2023-05-06T00:17:39.544Z,57.20
2023-05-06T00:20:07.701Z,57.13
2023-05-06T00:22:34.984Z,57.14
2023-05-06T00:25:02.589Z,57.17
2023-05-06T00:27:29.843Z,57.18
2023-05-06T00:29:58.257Z,57.17
2023-05-06T00:32:25.609Z,57.29
2023-05-06T00:34:52.846Z,57.20
2023-05-06T00:37:20.093Z,57.14
2023-05-06T00:39:47.350Z,57.14
2023-05-06T00:42:14.708Z,57.12
2023-05-06T00:44:42.024Z,57.27
2023-05-06T00:47:09.421Z,57.25
2023-05-06T00:49:36.760Z,57.18
2023-05-06T00:52:04.646Z,57.32
2023-05-06T00:54:32.083Z,57.31
2023-05-06T00:56:59.345Z,57.33
2023-05-06T00:59:26.884Z,57.22
2023-05-06T01:01:54.505Z,57.27
2023-05-06T01:04:24.101Z,57.32
2023-05-06T01:07:13.616Z,57.30
2023-05-06T01:09:57.434Z,57.11
2023-05-06T01:12:39.817Z,57.42
2023-05-06T01:15:13.834Z,57.36
2023-05-06T01:17:45.393Z,57.50
2023-05-06T01:20:13.371Z,57.51
2023-05-06T01:22:41.278Z,57.51
2023-05-06T01:25:18.927Z,57.48
2023-05-06T01:27:46.440Z,57.45
2023-05-06T01:30:16.572Z,57.51
2023-05-06T01:33:05.283Z,57.58
2023-05-06T01:36:08.989Z,57.62
2023-05-06T01:38:57.904Z,57.49
2023-05-06T01:41:26.259Z,57.55
2023-05-06T01:43:54.833Z,57.45
2023-05-06T01:46:24.648Z,57.37
2023-05-06T01:48:55.225Z,57.54
2023-05-06T01:51:23.901Z,57.54
2023-05-06T01:53:51.203Z,57.58
2023-05-06T01:56:18.462Z,57.63
2023-05-06T01:58:45.846Z,57.67
2023-05-06T02:01:13.121Z,57.71
2023-05-06T02:03:40.629Z,57.63
2023-05-06T02:06:08.272Z,57.71
2023-05-06T02:08:40.460Z,57.73
2023-05-06T02:11:09.754Z,57.79
2023-05-06T02:13:37.151Z,57.76
2023-05-06T02:16:05.957Z,57.53
2023-05-06T02:18:33.293Z,57.75
2023-05-06T02:21:01.102Z,57.89
2023-05-06T02:23:28.316Z,57.69
2023-05-06T02:25:57.985Z,57.86
2023-05-06T02:28:25.810Z,57.80
2023-05-06T02:30:57.310Z,57.83
2023-05-06T02:33:25.226Z,57.85
2023-05-06T02:35:52.514Z,57.89
2023-05-06T02:38:19.902Z,57.74
2023-05-06T02:40:47.126Z,57.72
2023-05-06T02:43:14.436Z,57.83
2023-05-06T02:45:41.870Z,57.72
2023-05-06T02:48:09.155Z,57.74
2023-05-06T02:50:37.354Z,57.84
2023-05-06T02:53:04.673Z,57.75
2023-05-06T02:55:32.036Z,57.79
2023-05-06T02:57:59.228Z,57.91
2023-05-06T03:00:26.464Z,57.88
2023-05-06T03:02:53.772Z,57.97
2023-05-06T03:05:21.257Z,57.97
2023-05-06T03:07:48.667Z,57.93
2023-05-06T03:10:16.213Z,57.86
2023-05-06T03:12:43.911Z,57.91
2023-05-06T03:15:11.670Z,57.83
2023-05-06T03:17:39.340Z,57.79
2023-05-06T03:20:08.836Z,57.83
2023-05-06T03:22:38.614Z,57.94
2023-05-06T03:25:06.429Z,57.98
2023-05-06T03:27:35.568Z,57.91
2023-05-06T03:30:10.608Z,57.97
2023-05-06T03:32:38.889Z,57.81
2023-05-06T03:35:11.685Z,57.82
2023-05-06T03:37:41.111Z,57.88
2023-05-06T03:40:09.773Z,57.92
2023-05-06T03:42:37.338Z,57.86
2023-05-06T03:45:07.189Z,57.88
2023-05-06T03:47:35.045Z,57.81
2023-05-06T03:50:04.184Z,57.67
2023-05-06T03:52:33.885Z,57.73
2023-05-06T03:55:01.752Z,57.66
2023-05-06T03:57:30.715Z,57.69
2023-05-06T03:59:58.387Z,57.67
2023-05-06T04:02:29.309Z,57.71
2023-05-06T04:04:57.894Z,57.87
2023-05-06T04:07:25.203Z,57.91
2023-05-06T04:09:52.351Z,57.95
2023-05-06T04:12:19.614Z,57.92
2023-05-06T04:14:48.482Z,57.90
2023-05-06T04:17:15.967Z,57.92
2023-05-06T04:19:44.564Z,57.98
2023-05-06T04:22:11.791Z,57.88
2023-05-06T04:24:39.115Z,57.79
2023-05-06T04:27:06.471Z,57.73
2023-05-06T04:29:34.325Z,57.83
2023-05-06T04:32:04.862Z,57.72
2023-05-06T04:34:36.187Z,57.71
2023-05-06T04:37:05.719Z,57.85
2023-05-06T04:39:59.509Z,57.71
2023-05-06T04:42:27.302Z,57.70
2023-05-06T04:45:05.793Z,57.84
2023-05-06T04:47:35.514Z,57.78
2023-05-06T04:50:04.563Z,57.69
2023-05-06T04:52:32.262Z,57.60
2023-05-06T04:54:59.831Z,57.61
2023-05-06T04:57:27.150Z,57.69
2023-05-06T04:59:55.972Z,57.59
2023-05-06T05:02:23.521Z,57.64
2023-05-06T05:04:51.802Z,57.62
2023-05-06T05:07:19.555Z,57.60
2023-05-06T05:09:46.998Z,57.53
2023-05-06T05:12:14.337Z,57.59
2023-05-06T05:14:47.409Z,57.54
2023-05-06T05:17:15.492Z,57.54
2023-05-06T05:19:43.146Z,57.50
2023-05-06T05:22:11.836Z,57.47
2023-05-06T05:24:39.918Z,57.52
2023-05-06T05:27:07.607Z,57.46
2023-05-06T05:29:35.848Z,57.30
2023-05-06T05:32:06.335Z,57.42
2023-05-06T05:34:33.597Z,57.49
2023-05-06T05:37:01.882Z,57.47
2023-05-06T05:39:30.371Z,57.36
2023-05-06T05:41:58.514Z,57.41
2023-05-06T05:44:26.423Z,57.37
2023-05-06T05:46:54.928Z,57.35
2023-05-06T05:49:24.212Z,57.39
2023-05-06T05:51:53.489Z,57.37
2023-05-06T05:54:22.192Z,57.42
2023-05-06T05:56:50.602Z,57.36
2023-05-06T05:59:17.924Z,57.36
2023-05-06T06:01:47.954Z,57.39
2023-05-06T06:04:16.026Z,57.33
2023-05-06T06:06:43.714Z,57.34
2023-05-06T06:09:11.211Z,57.33
2023-05-06T06:11:39.861Z,57.37
2023-05-06T06:14:07.718Z,57.40
2023-05-06T06:16:36.973Z,57.34
2023-05-06T06:19:04.572Z,57.27
2023-05-06T06:21:32.372Z,57.24
2023-05-06T06:24:00.563Z,57.25
2023-05-06T06:26:27.841Z,57.62
2023-05-06T06:28:55.120Z,57.50
2023-05-06T06:31:22.698Z,57.60
2023-05-06T06:33:50.213Z,57.65
2023-05-06T06:36:17.655Z,57.79
2023-05-06T06:38:44.947Z,57.72
2023-05-06T06:41:12.236Z,57.80
2023-05-06T06:43:39.452Z,57.70
2023-05-06T06:46:19.933Z,57.65
2023-05-06T06:48:47.949Z,57.74
2023-05-06T06:51:15.295Z,57.75
2023-05-06T06:53:43.127Z,57.80
2023-05-06T06:56:14.122Z,57.75
2023-05-06T06:58:41.766Z,57.84
2023-05-06T07:01:10.197Z,57.79
2023-05-06T07:03:37.488Z,57.75
2023-05-06T07:06:04.746Z,57.70
2023-05-06T07:08:32.120Z,57.83
2023-05-06T07:10:59.347Z,57.77
2023-05-06T07:13:26.812Z,57.80
2023-05-06T07:15:54.077Z,57.79
2023-05-06T07:18:21.707Z,57.77
2023-05-06T07:20:48.968Z,57.78
2023-05-06T07:23:16.367Z,57.68
2023-05-06T07:25:43.697Z,57.81
2023-05-06T07:33:05.775Z,57.67
2023-05-06T07:35:33.181Z,57.63
2023-05-06T07:38:00.585Z,57.70
2023-05-06T07:40:27.936Z,57.65
2023-05-06T07:42:55.684Z,57.69
2023-05-06T07:45:24.421Z,57.82
2023-05-06T07:47:52.101Z,57.81
2023-05-06T07:50:19.631Z,57.72
2023-05-06T07:52:46.937Z,57.74
2023-05-06T07:55:14.260Z,57.77
2023-05-06T07:57:41.495Z,57.70
2023-05-06T08:00:10.117Z,57.75
2023-05-06T08:02:44.491Z,57.81
2023-05-06T08:05:13.451Z,57.79
2023-05-06T08:07:42.362Z,57.76
2023-05-06T08:10:10.366Z,57.74
2023-05-06T08:12:38.180Z,57.85
2023-05-06T08:15:06.114Z,57.79
2023-05-06T08:17:33.467Z,57.75
2023-05-06T08:20:00.803Z,57.80
2023-05-06T08:22:28.200Z,57.82
2023-05-06T08:24:55.491Z,56.70
2023-05-06T08:27:22.961Z,56.83
2023-05-06T08:29:50.354Z,56.73
2023-05-06T08:32:17.569Z,57.04
2023-05-06T08:34:44.847Z,57.48
2023-05-06T08:37:12.176Z,57.43
2023-05-06T08:39:39.448Z,57.77
2023-05-06T08:42:11.460Z,57.67
2023-05-06T08:44:38.988Z,57.78
2023-05-06T08:47:06.458Z,57.48
2023-05-06T08:49:33.801Z,57.68
2023-05-06T08:52:04.753Z,57.73
2023-05-06T08:54:35.856Z,57.88
2023-05-06T08:57:05.748Z,57.85
2023-05-06T08:59:33.833Z,57.77
2023-05-06T09:02:02.247Z,57.86
2023-05-06T09:04:30.038Z,57.84
2023-05-06T09:07:00.300Z,57.87
2023-05-06T09:09:27.552Z,57.79
2023-05-06T09:11:57.505Z,57.94
2023-05-06T09:14:25.299Z,58.02
2023-05-06T09:16:53.103Z,57.97
2023-05-06T09:19:23.362Z,58.04
2023-05-06T09:21:51.801Z,57.77
2023-05-06T09:24:20.309Z,58.07
2023-05-06T09:26:47.946Z,58.06
2023-05-06T09:29:15.741Z,58.11
2023-05-06T09:31:47.039Z,58.06
2023-05-06T09:34:15.942Z,57.97
2023-05-06T09:36:43.242Z,57.98
2023-05-06T09:39:10.866Z,57.91
2023-05-06T09:41:38.302Z,57.93
2023-05-06T09:44:06.280Z,57.93
2023-05-06T09:46:33.836Z,57.97
2023-05-06T09:49:01.655Z,57.99
2023-05-06T09:51:31.119Z,58.04
2023-05-06T09:54:00.816Z,58.11
2023-05-06T09:56:30.380Z,58.03
2023-05-06T09:59:01.333Z,57.98
2023-05-06T10:01:36.726Z,57.89
2023-05-06T10:04:08.706Z,57.92
2023-05-06T10:06:39.459Z,58.04
2023-05-06T10:09:10.572Z,58.01
2023-05-06T10:11:38.773Z,57.78
2023-05-06T10:14:06.856Z,57.90
2023-05-06T10:16:36.322Z,58.06
2023-05-06T10:19:06.778Z,58.01
2023-05-06T10:21:38.126Z,57.87
2023-05-06T10:24:07.618Z,57.79
2023-05-06T10:26:37.535Z,57.85
2023-05-06T10:29:10.349Z,57.94
2023-05-06T10:31:44.924Z,57.60
2023-05-06T10:34:12.211Z,58.00
2023-05-06T10:36:43.183Z,57.71
2023-05-06T10:39:13.707Z,58.06
2023-05-06T10:41:41.018Z,58.83
2023-05-06T10:44:10.040Z,58.91
2023-05-06T10:46:57.840Z,58.32
2023-05-06T10:49:25.511Z,58.58
2023-05-06T10:52:12.966Z,58.95
2023-05-06T10:54:51.618Z,58.83
2023-05-06T10:57:21.868Z,58.64
2023-05-06T10:59:49.491Z,58.50
2023-05-06T11:02:20.445Z,58.47
2023-05-06T11:04:53.310Z,58.48
2023-05-06T11:07:24.736Z,58.92
2023-05-06T11:10:01.150Z,58.58
2023-05-06T11:12:49.431Z,58.63
2023-05-06T11:15:36.094Z,59.06
2023-05-06T11:18:21.880Z,58.73
2023-05-06T11:20:50.833Z,58.79
2023-05-06T11:23:21.204Z,58.72
2023-05-06T11:25:48.686Z,58.93
2023-05-06T11:28:16.483Z,58.54
2023-05-06T11:30:53.837Z,58.79
2023-05-06T11:33:24.090Z,58.72
2023-05-06T11:35:51.480Z,58.61
2023-05-06T11:38:18.966Z,58.94
2023-05-06T11:40:46.222Z,59.00
2023-05-06T11:43:14.992Z,58.96
2023-05-06T11:45:47.003Z,59.13
2023-05-06T11:48:15.939Z,59.02
2023-05-06T11:50:49.896Z,59.11
2023-05-06T11:53:19.992Z,59.01
2023-05-06T11:55:48.385Z,58.87
2023-05-06T11:58:20.035Z,58.95
2023-05-06T12:00:51.453Z,58.83
2023-05-06T12:03:20.206Z,58.80
2023-05-06T12:05:48.970Z,58.95
2023-05-06T12:08:27.511Z,58.88
2023-05-06T12:11:02.214Z,58.86
2023-05-06T12:13:30.051Z,58.80
2023-05-06T12:16:01.377Z,58.71
2023-05-06T12:18:29.362Z,58.61
2023-05-06T12:20:57.524Z,58.69
2023-05-06T12:23:24.963Z,58.61
2023-05-06T12:26:06.666Z,58.68
2023-05-06T12:28:36.770Z,58.57
2023-05-06T12:31:19.159Z,58.41
2023-05-06T12:33:49.120Z,58.51
2023-05-06T12:36:17.697Z,58.40
2023-05-06T12:39:00.013Z,58.35
2023-05-06T12:41:41.680Z,58.55
2023-05-06T12:44:36.754Z,58.32
2023-05-06T12:47:07.510Z,58.29
2023-05-06T12:49:59.101Z,58.28
2023-05-06T12:52:29.995Z,58.29
2023-05-06T12:55:00.757Z,58.47
2023-05-06T12:57:28.112Z,58.37
2023-05-06T12:59:56.477Z,58.29
2023-05-06T13:02:23.995Z,58.27
2023-05-06T13:04:51.504Z,58.09
2023-05-06T13:07:18.765Z,58.15
2023-05-06T13:09:46.254Z,58.25
2023-05-06T13:12:13.604Z,58.19
2023-05-06T13:14:40.981Z,58.25
2023-05-06T13:17:08.718Z,58.34
2023-05-06T13:19:36.195Z,58.37
2023-05-06T13:22:03.919Z,58.02
2023-05-06T13:24:32.263Z,58.07
2023-05-06T13:27:01.202Z,58.22
2023-05-06T13:29:29.768Z,58.26
2023-05-06T13:31:57.721Z,58.01
2023-05-06T13:34:26.007Z,58.39
2023-05-06T13:36:54.634Z,58.11
2023-05-06T13:39:22.746Z,58.18
2023-05-06T13:41:50.272Z,58.02
2023-05-06T13:44:21.089Z,58.20
2023-05-06T13:46:48.745Z,58.17
2023-05-06T13:49:16.546Z,58.30
2023-05-06T13:51:43.952Z,58.16
2023-05-06T13:54:11.316Z,58.14
2023-05-06T13:56:38.650Z,58.10
2023-05-06T13:59:08.146Z,58.25
2023-05-06T14:01:36.351Z,58.00
2023-05-06T14:04:03.894Z,58.09
2023-05-06T14:06:31.581Z,58.14
2023-05-06T14:08:58.890Z,58.06
2023-05-06T14:11:26.232Z,58.12
2023-05-06T14:13:56.387Z,58.20
2023-05-06T14:16:23.815Z,58.13
2023-05-06T14:18:51.297Z,58.06
2023-05-06T14:21:18.556Z,58.13
2023-05-06T14:23:45.893Z,58.28
2023-05-06T14:26:14.233Z,58.09
2023-05-06T14:28:41.558Z,58.20
2023-05-06T14:31:10.244Z,57.99
2023-05-06T14:33:38.610Z,58.06
2023-05-06T14:36:06.238Z,58.08
2023-05-06T14:38:33.621Z,58.13
2023-05-06T14:41:01.135Z,58.11
2023-05-06T14:43:28.562Z,58.16
2023-05-06T14:45:55.958Z,58.10
2023-05-06T14:48:25.427Z,57.92
2023-05-06T14:50:53.125Z,58.08
2023-05-06T14:53:20.540Z,58.08
2023-05-06T14:55:48.959Z,58.14
2023-05-06T14:58:16.329Z,58.01
2023-05-06T15:00:43.693Z,57.96
2023-05-06T15:03:11.119Z,57.99
2023-05-06T15:05:38.643Z,58.03
2023-05-06T15:08:06.177Z,58.12
2023-05-06T15:10:33.615Z,57.96
2023-05-06T15:13:01.136Z,58.02
2023-05-06T15:15:35.615Z,58.06
2023-05-06T15:18:05.248Z,57.88
2023-05-06T15:20:32.631Z,57.91
2023-05-06T15:23:00.037Z,57.89
2023-05-06T15:25:34.902Z,57.80
2023-05-06T15:28:05.087Z,57.89
2023-05-06T15:30:32.476Z,58.07
2023-05-06T15:33:01.645Z,57.88
2023-05-06T15:35:30.443Z,57.89
2023-05-06T15:37:59.026Z,57.83
2023-05-06T15:40:26.976Z,57.92
2023-05-06T15:42:54.400Z,57.85
2023-05-06T15:45:22.377Z,57.90
2023-05-06T15:47:49.720Z,57.99
2023-05-06T15:50:31.811Z,57.97
2023-05-06T15:53:02.114Z,57.92
2023-05-06T15:55:34.524Z,57.96
2023-05-06T15:58:08.693Z,58.03
2023-05-06T16:00:35.982Z,57.69
2023-05-06T16:03:03.778Z,57.83
2023-05-06T16:05:31.675Z,57.90
2023-05-06T16:07:59.073Z,57.69
2023-05-06T16:10:26.435Z,57.90
2023-05-06T16:12:54.319Z,57.92
2023-05-06T16:15:21.739Z,57.92
2023-05-06T16:17:49.077Z,58.05
2023-05-06T16:20:16.664Z,57.85
2023-05-06T16:22:49.935Z,57.85
2023-05-06T16:25:17.396Z,57.86
2023-05-06T16:27:44.721Z,57.79
2023-05-06T16:30:12.674Z,57.72
2023-05-06T16:32:40.282Z,57.83
2023-05-06T16:35:08.416Z,57.79
2023-05-06T16:37:36.490Z,57.85
2023-05-06T16:40:04.626Z,57.82
2023-05-06T16:42:31.882Z,57.80
2023-05-06T16:44:59.225Z,57.76
2023-05-06T16:47:28.295Z,57.81
2023-05-06T16:49:55.829Z,57.86
2023-05-06T16:52:23.242Z,57.82
2023-05-06T16:54:51.490Z,57.88
2023-05-06T16:57:18.973Z,57.76
2023-05-06T16:59:46.389Z,57.86
2023-05-06T17:02:13.779Z,57.89
2023-05-06T17:04:41.418Z,58.11
2023-05-06T17:07:11.094Z,58.24
2023-05-06T17:09:38.910Z,58.17
2023-05-06T17:12:07.477Z,58.24
2023-05-06T17:14:35.741Z,58.44
2023-05-06T17:17:05.429Z,58.47
2023-05-06T17:19:34.010Z,58.67
2023-05-06T17:22:01.449Z,58.61
2023-05-06T17:24:28.963Z,58.51
2023-05-06T17:26:56.427Z,58.72
2023-05-06T17:29:23.834Z,58.87
2023-05-06T17:31:51.265Z,58.86
2023-05-06T17:34:18.615Z,58.82
2023-05-06T17:36:45.988Z,58.87
2023-05-06T17:39:13.376Z,58.37
2023-05-06T17:41:40.938Z,58.32
2023-05-06T17:44:08.201Z,58.51
2023-05-06T17:46:35.463Z,58.52
2023-05-06T17:49:02.823Z,58.97
2023-05-06T17:51:30.070Z,59.23
2023-05-06T17:53:57.630Z,59.40
2023-05-06T17:56:25.112Z,59.78
2023-05-06T17:58:52.295Z,59.76
2023-05-06T18:01:19.706Z,59.69
2023-05-06T18:03:47.157Z,59.49
2023-05-06T18:06:14.512Z,59.57
2023-05-06T18:08:41.776Z,59.91
2023-05-06T18:11:09.091Z,60.35
2023-05-06T18:13:36.980Z,60.49
2023-05-06T18:16:04.933Z,60.22
2023-05-06T18:18:32.245Z,60.37
2023-05-06T18:20:59.505Z,60.42
2023-05-06T18:23:26.729Z,60.39
2023-05-06T18:25:53.995Z,60.51
2023-05-06T18:28:21.280Z,60.43
2023-05-06T18:30:48.514Z,60.71
2023-05-06T18:33:15.834Z,60.45
2023-05-06T18:35:43.170Z,60.52
2023-05-06T18:38:11.688Z,60.36
2023-05-06T18:40:39.648Z,60.14
2023-05-06T18:43:08.190Z,60.38
2023-05-06T18:45:35.607Z,60.50
2023-05-06T18:48:03.096Z,60.47
2023-05-06T18:50:30.359Z,60.64
2023-05-06T18:52:57.623Z,60.54
2023-05-06T18:55:24.831Z,60.92
2023-05-06T18:57:52.142Z,60.43
2023-05-06T19:00:21.744Z,60.65
2023-05-06T19:02:49.174Z,60.82
2023-05-06T19:05:16.862Z,60.83
2023-05-06T19:07:44.216Z,60.90
2023-05-06T19:10:13.944Z,61.22
2023-05-06T19:12:41.697Z,60.38
2023-05-06T19:15:10.178Z,60.75
2023-05-06T19:17:37.973Z,60.64
2023-05-06T19:20:05.987Z,60.56
2023-05-06T19:22:33.363Z,60.34
2023-05-06T19:25:00.840Z,61.01
2023-05-06T19:27:28.936Z,60.91
2023-05-06T19:29:56.605Z,61.09
2023-05-06T19:32:23.960Z,61.52
2023-05-06T19:34:51.290Z,61.48
2023-05-06T19:37:18.558Z,61.82
2023-05-06T19:39:46.579Z,61.87
2023-05-06T19:42:13.926Z,62.00
2023-05-06T19:44:41.237Z,62.34
2023-05-06T19:47:08.495Z,62.00
2023-05-06T19:49:35.884Z,61.75
2023-05-06T19:52:03.115Z,62.17
2023-05-06T19:54:30.534Z,62.02
2023-05-06T19:56:59.834Z,62.06
2023-05-06T19:59:27.914Z,62.53
2023-05-06T20:01:57.075Z,62.52
2023-05-06T20:04:24.370Z,62.64
2023-05-06T20:06:52.239Z,62.99
2023-05-06T20:09:19.685Z,62.51
2023-05-06T20:11:47.472Z,62.48
2023-05-06T20:14:14.869Z,62.52
2023-05-06T20:16:42.212Z,62.60
2023-05-06T20:19:09.616Z,62.52
2023-05-06T20:21:36.949Z,62.56
2023-05-06T20:24:04.445Z,62.42
2023-05-06T20:26:31.759Z,62.55
2023-05-06T20:28:59.234Z,62.61
2023-05-06T20:31:26.691Z,62.68
2023-05-06T20:33:53.981Z,62.52
2023-05-06T20:36:21.365Z,62.35
2023-05-06T20:38:50.117Z,62.12
2023-05-06T20:41:17.390Z,62.32
2023-05-06T20:43:44.603Z,62.38
2023-05-06T20:46:11.915Z,62.50
2023-05-06T20:48:39.171Z,62.35
2023-05-06T20:51:06.541Z,62.53
2023-05-06T20:53:33.934Z,62.41
2023-05-06T20:56:01.371Z,62.28
2023-05-06T20:58:29.527Z,62.24
2023-05-06T21:00:57.908Z,62.15
2023-05-06T21:03:26.659Z,62.11
2023-05-06T21:05:54.140Z,62.30
2023-05-06T21:08:21.424Z,62.08
2023-05-06T21:10:48.706Z,62.25
2023-05-06T21:13:16.011Z,62.33
2023-05-06T21:15:44.166Z,62.43
2023-05-06T21:18:11.467Z,62.45
2023-05-06T21:20:38.752Z,62.32
2023-05-06T21:23:05.998Z,62.37
2023-05-06T21:25:33.272Z,62.23
2023-05-06T21:28:05.334Z,62.15
2023-05-06T21:30:35.236Z,62.06
2023-05-06T21:33:02.973Z,62.03
2023-05-06T21:35:31.104Z,62.19
2023-05-06T21:37:58.497Z,61.87
2023-05-06T21:40:26.147Z,61.92
2023-05-06T21:42:53.474Z,61.99
2023-05-06T21:45:21.473Z,62.00
2023-05-06T21:47:49.103Z,61.82
2023-05-06T21:50:16.429Z,61.91
2023-05-06T21:52:43.850Z,61.76
2023-05-06T21:55:11.758Z,61.88
2023-05-06T21:57:39.324Z,61.81
2023-05-06T22:00:11.939Z,61.81
2023-05-06T22:02:40.605Z,61.71
2023-05-06T22:05:09.025Z,61.79
2023-05-06T22:07:36.598Z,61.66
2023-05-06T22:10:04.901Z,61.51
2023-05-06T22:12:32.181Z,61.61
2023-05-06T22:14:59.551Z,61.85
2023-05-06T22:17:27.323Z,61.49
2023-05-06T22:19:56.103Z,61.68
2023-05-06T22:22:25.256Z,61.96
2023-05-06T22:24:52.555Z,61.88
2023-05-06T22:27:19.785Z,61.77
2023-05-06T22:29:47.084Z,61.81
2023-05-06T22:32:14.329Z,61.73
2023-05-06T22:34:41.660Z,61.47
2023-05-06T22:37:09.844Z,61.74
2023-05-06T22:39:37.612Z,61.90
2023-05-06T22:42:04.975Z,61.64
2023-05-06T22:44:32.361Z,61.75
2023-05-06T22:46:59.956Z,61.61
2023-05-06T22:49:28.777Z,61.74
2023-05-06T22:51:57.024Z,61.66
2023-05-06T22:54:24.655Z,61.46
2023-05-06T22:56:52.086Z,61.54
2023-05-06T22:59:19.362Z,61.49
2023-05-06T23:01:46.831Z,61.62
2023-05-06T23:04:14.511Z,61.64
2023-05-06T23:06:42.359Z,61.39
2023-05-06T23:09:09.550Z,61.53
2023-05-06T23:11:36.804Z,61.38
2023-05-06T23:14:04.321Z,61.44
2023-05-06T23:16:31.626Z,61.31
2023-05-06T23:18:58.894Z,61.34
2023-05-06T23:21:26.804Z,61.22
2023-05-06T23:23:54.185Z,61.35
2023-05-06T23:26:21.510Z,61.41
2023-05-06T23:28:51.797Z,61.08
2023-05-06T23:31:19.140Z,61.21
2023-05-06T23:33:46.361Z,61.05
2023-05-06T23:36:13.677Z,61.12
2023-05-06T23:38:40.981Z,61.10
2023-05-06T23:41:08.263Z,61.07
2023-05-06T23:43:35.496Z,61.21
2023-05-06T23:46:02.834Z,61.22
2023-05-06T23:48:30.162Z,61.13
2023-05-06T23:50:57.413Z,61.01
2023-05-06T23:53:24.714Z,61.12
2023-05-06T23:55:51.963Z,61.03
2023-05-06T23:58:19.313Z,61.15
